Time;durP1;ratioP1;P1;durP2;ratioP2;P2;SDS_P1;SDS_P2;PMS_P1;PMS_P2;Temp;Humidity;BMP_temperature;BMP_pressure;BME280_temperature;BME280_humidity;BME280_pressure;Samples;Min_cycle;Max_cycle;Signal;HPM_P1;HPM_P2
2022/05/25 00:00:36;;;;;;;4.63;2.45;;;;;;;6.97;58.88;101065.47;5093210;28;20044;-70
2022/05/25 00:03:02;;;;;;;5.60;2.88;;;;;;;6.92;59.10;101063.44;5092515;28;20043;-70
2022/05/25 00:05:30;;;;;;;4.55;2.63;;;;;;;6.90;59.01;101070.22;5092175;28;20122;-69
2022/05/25 00:07:59;;;;;;;3.37;2.43;;;;;;;6.87;59.74;101070.72;5093706;28;20043;-70
2022/05/25 00:10:25;;;;;;;4.50;2.67;;;;;;;6.82;59.70;101065.19;5089499;28;20039;-70
2022/05/25 00:12:50;;;;;;;4.35;2.55;;;;;;;6.82;59.36;101068.75;5091786;28;20052;-70
2022/05/25 00:15:16;;;;;;;5.20;2.25;;;;;;;6.81;59.76;101079.91;5088739;28;20051;-70
2022/05/25 00:17:42;;;;;;;6.38;2.40;;;;;;;6.79;59.80;101074.69;5092037;28;20521;-70
2022/05/25 00:20:10;;;;;;;5.93;2.50;;;;;;;6.83;59.80;101075.03;5090514;28;20047;-70
2022/05/25 00:22:46;;;;;;;4.75;2.45;;;;;;;6.84;60.14;101072.06;5088649;28;20176;-70
2022/05/25 00:25:15;;;;;;;7.00;3.40;;;;;;;6.87;59.98;101074.28;5090731;28;20039;-70
2022/05/25 00:27:41;;;;;;;5.78;2.45;;;;;;;6.88;60.25;101072.38;5090083;28;20035;-70
2022/05/25 00:30:07;;;;;;;6.25;3.70;;;;;;;6.93;60.11;101067.84;5091913;28;20036;-69
2022/05/25 00:32:33;;;;;;;10.52;4.65;;;;;;;6.88;60.30;101073.22;5087785;28;20032;-68
2022/05/25 00:34:59;;;;;;;12.88;5.22;;;;;;;6.81;60.61;101069.81;5087156;28;20043;-68
2022/05/25 00:37:24;;;;;;;12.05;5.07;;;;;;;6.76;60.59;101075.16;5086645;28;20407;-68
2022/05/25 00:39:50;;;;;;;12.25;5.75;;;;;;;6.70;60.83;101073.44;5087521;28;20081;-68
2022/05/25 00:42:16;;;;;;;9.95;4.90;;;;;;;6.65;61.49;101062.44;5088571;28;20074;-68
2022/05/25 00:44:42;;;;;;;10.77;4.95;;;;;;;6.63;61.73;101070.03;5084262;28;20646;-68
2022/05/25 00:47:09;;;;;;;13.25;5.07;;;;;;;6.64;61.59;101071.69;5088839;28;20605;-68
2022/05/25 00:49:36;;;;;;;12.65;5.13;;;;;;;6.64;62.16;101067.06;5090280;28;20036;-69
2022/05/25 00:52:07;;;;;;;12.90;5.40;;;;;;;6.63;61.90;101070.03;5086188;28;20064;-69
2022/05/25 00:54:35;;;;;;;11.27;5.38;;;;;;;6.61;61.99;101070.28;5087091;28;20060;-69
2022/05/25 00:57:05;;;;;;;11.73;5.10;;;;;;;6.57;61.86;101060.09;5087211;28;20134;-69
2022/05/25 00:59:36;;;;;;;9.90;4.30;;;;;;;6.54;62.44;101066.03;5089276;28;20036;-69
2022/05/25 01:02:02;;;;;;;10.93;5.10;;;;;;;6.54;62.47;101066.88;5085351;28;20044;-69
2022/05/25 01:04:28;;;;;;;11.32;4.57;;;;;;;6.62;62.29;101066.47;5090298;28;20043;-69
2022/05/25 01:07:12;;;;;;;11.23;4.70;;;;;;;6.72;62.88;101067.72;5085490;28;20032;-69
2022/05/25 01:09:40;;;;;;;10.63;4.15;;;;;;;6.74;62.15;101060.13;5085022;28;20045;-69
2022/05/25 01:12:17;;;;;;;8.93;4.38;;;;;;;6.75;62.30;101065.34;5088176;28;20038;-69
2022/05/25 01:15:07;;;;;;;11.43;4.55;;;;;;;6.75;62.68;101057.16;5091542;28;20514;-69
2022/05/25 01:17:44;;;;;;;7.55;3.38;;;;;;;6.82;62.86;101063.28;5084621;28;20027;-69
2022/05/25 01:20:10;;;;;;;8.35;3.65;;;;;;;6.84;62.88;101063.03;5087404;28;20032;-69
2022/05/25 01:23:07;;;;;;;7.53;3.30;;;;;;;6.85;63.12;101062.78;5087877;28;20031;-69
2022/05/25 01:25:54;;;;;;;6.55;3.53;;;;;;;6.80;62.67;101060.00;5085146;28;20063;-69
2022/05/25 01:28:58;;;;;;;7.32;3.30;;;;;;;6.75;62.82;101059.88;5085931;28;20524;-69
2022/05/25 01:31:40;;;;;;;6.20;3.80;;;;;;;6.68;62.75;101059.22;5086195;28;20048;-69
2022/05/25 01:34:13;;;;;;;7.38;3.13;;;;;;;6.69;63.05;101063.59;5084878;28;20043;-69
2022/05/25 01:37:15;;;;;;;8.85;4.28;;;;;;;6.65;62.93;101068.72;5080137;28;20064;-69
2022/05/25 01:39:45;;;;;;;9.23;3.83;;;;;;;6.61;62.94;101061.28;5076282;28;20119;-69
2022/05/25 01:42:33;;;;;;;6.50;3.53;;;;;;;6.57;63.30;101062.81;5085844;28;20043;-69
2022/05/25 01:45:02;;;;;;;7.53;3.30;;;;;;;6.54;63.38;101063.31;5087242;28;20039;-69
2022/05/25 01:47:30;;;;;;;8.70;3.90;;;;;;;6.55;63.67;101059.50;5066798;28;20036;-69
2022/05/25 01:50:01;;;;;;;9.20;3.70;;;;;;;6.58;63.73;101061.75;5088400;28;20044;-69
2022/05/25 01:52:31;;;;;;;7.25;3.30;;;;;;;6.65;63.93;101067.91;5086001;28;20042;-69
2022/05/25 01:55:00;;;;;;;6.18;3.55;;;;;;;6.78;63.64;101058.59;5085908;28;20047;-69
2022/05/25 01:57:27;;;;;;;;;;;;;;;6.93;63.27;101067.84;5084167;28;20059;-69
2022/05/25 01:59:52;;;;;;;7.20;3.10;;;;;;;7.05;63.03;101069.69;5084657;28;19930;-68
2022/05/25 02:05:14;;;;;;;6.43;2.85;;;;;;;7.19;62.94;101062.81;5086540;28;20036;-69
2022/05/25 02:07:58;;;;;;;6.53;3.25;;;;;;;7.23;62.55;101064.78;5083647;28;20031;-68
2022/05/25 02:10:39;;;;;;;7.88;3.28;;;;;;;7.42;62.97;101065.34;5083749;28;20056;-69
2022/05/25 02:13:26;;;;;;;6.25;2.45;;;;;;;7.64;61.93;101059.16;5084446;28;20081;-69
2022/05/25 02:16:33;;;;;;;7.20;2.55;;;;;;;7.77;62.07;101054.13;5089105;28;20036;-69
2022/05/25 02:19:21;;;;;;;5.28;2.80;;;;;;;7.80;61.90;101058.25;5066187;28;20132;-69
2022/05/25 02:21:56;;;;;;;5.85;2.75;;;;;;;7.93;61.26;101057.88;5047177;28;20148;-69
2022/05/25 02:24:29;;;;;;;6.72;3.08;;;;;;;8.04;60.91;101065.16;5080261;28;20667;-69
2022/05/25 02:27:00;;;;;;;7.40;2.58;;;;;;;8.14;60.98;101059.78;5084498;28;20122;-69
2022/05/25 02:30:02;;;;;;;7.32;2.55;;;;;;;8.27;60.39;101063.22;5082204;28;20028;-69
2022/05/25 02:32:32;;;;;;;3.28;1.85;;;;;;;8.62;59.89;101062.81;5064539;28;20055;-69
2022/05/25 02:34:59;;;;;;;6.25;2.40;;;;;;;8.76;59.25;101062.16;5084451;28;20044;-69
2022/05/25 02:37:25;;;;;;;3.63;1.98;;;;;;;8.89;58.52;101060.09;5062545;28;20036;-69
2022/05/25 02:39:53;;;;;;;2.92;1.77;;;;;;;9.03;58.20;101062.16;5087750;28;20127;-69
2022/05/25 02:42:18;;;;;;;4.80;1.75;;;;;;;9.32;57.73;101059.91;5080658;28;20048;-69
2022/05/25 02:44:44;;;;;;;7.07;2.70;;;;;;;9.54;57.01;101062.50;5087389;28;20423;-69
2022/05/25 02:47:10;;;;;;;5.70;2.42;;;;;;;9.81;56.47;101065.16;5085219;28;20040;-69
2022/05/25 02:49:36;;;;;;;5.65;2.05;;;;;;;9.95;55.78;101060.84;5085886;28;20723;-69
2022/05/25 02:52:03;;;;;;;5.97;2.25;;;;;;;10.15;55.34;101057.38;5089290;28;20040;-69
2022/05/25 02:54:29;;;;;;;7.30;2.80;;;;;;;10.29;55.42;101068.72;5088530;28;20529;-68
2022/05/25 02:56:54;;;;;;;11.30;3.50;;;;;;;10.36;54.75;101073.94;5086128;28;20044;-68
2022/05/25 02:59:20;;;;;;;12.20;4.15;;;;;;;10.39;54.54;101068.72;5081421;28;20486;-68
2022/05/25 03:01:45;;;;;;;8.07;3.55;;;;;;;10.46;54.11;101076.72;5089654;28;20040;-68
2022/05/25 03:04:11;;;;;;;9.35;4.07;;;;;;;10.60;53.77;101066.06;5089015;28;20074;-69
2022/05/25 03:06:36;;;;;;;9.82;3.90;;;;;;;10.69;54.01;101062.50;5084363;28;20043;-69
2022/05/25 03:09:02;;;;;;;9.65;3.58;;;;;;;10.77;53.87;101070.22;5085083;28;20131;-69
2022/05/25 03:11:28;;;;;;;9.18;2.97;;;;;;;10.80;53.03;101063.34;5084716;28;20036;-69
2022/05/25 03:13:54;;;;;;;7.43;2.80;;;;;;;10.86;53.42;101065.00;5089543;28;20040;-68
2022/05/25 03:16:20;;;;;;;7.53;3.72;;;;;;;11.08;52.93;101059.25;5086542;28;20387;-69
2022/05/25 03:18:46;;;;;;;9.65;3.00;;;;;;;11.28;52.14;101058.41;5087748;28;20077;-69
2022/05/25 03:21:12;;;;;;;6.30;3.08;;;;;;;11.37;51.46;101073.25;5083932;28;20093;-69
2022/05/25 03:23:38;;;;;;;5.28;2.58;;;;;;;11.45;51.90;101057.06;5087489;28;20039;-69
2022/05/25 03:26:04;;;;;;;5.43;2.47;;;;;;;11.57;51.61;101058.66;5082739;28;20039;-69
2022/05/25 03:28:30;;;;;;;5.18;2.33;;;;;;;11.57;51.31;101059.50;5086876;28;20032;-69
2022/05/25 03:30:55;;;;;;;5.75;2.40;;;;;;;11.98;50.48;101052.00;5083260;28;20105;-69
2022/05/25 03:33:21;;;;;;;5.50;2.20;;;;;;;12.35;49.79;101057.06;5086136;28;20029;-69
2022/05/25 03:35:47;;;;;;;8.25;2.05;;;;;;;12.72;49.17;101061.28;5084041;28;20418;-69
2022/05/25 03:38:12;;;;;;;5.20;2.42;;;;;;;12.78;48.19;101060.13;5088532;28;20540;-69
2022/05/25 03:40:39;;;;;;;5.20;3.20;;;;;;;12.90;48.80;101062.53;5086526;28;20378;-69
2022/05/25 03:43:06;;;;;;;5.15;2.05;;;;;;;13.06;47.79;101066.81;5084025;28;20598;-69
2022/05/25 03:45:31;;;;;;;5.82;2.22;;;;;;;12.89;47.24;101058.94;5087068;28;20043;-69
2022/05/25 03:47:57;;;;;;;4.05;1.90;;;;;;;12.91;47.54;101061.41;5085206;28;20040;-70
2022/05/25 03:50:23;;;;;;;3.58;2.05;;;;;;;13.01;47.87;101064.06;5080269;28;20407;-70
2022/05/25 03:52:49;;;;;;;6.32;2.17;;;;;;;13.15;46.66;101062.31;5080596;28;20089;-70
2022/05/25 03:55:14;;;;;;;2.40;1.80;;;;;;;13.46;46.85;101062.09;5079599;28;20498;-70
2022/05/25 03:57:40;;;;;;;2.75;1.75;;;;;;;13.65;46.38;101059.44;5084565;28;20080;-70
2022/05/25 04:00:07;;;;;;;4.32;2.05;;;;;;;13.99;46.10;101056.56;5087743;28;20119;-70
2022/05/25 04:02:33;;;;;;;4.90;2.40;;;;;;;14.07;45.75;101054.00;5089676;28;20088;-68
2022/05/25 04:05:07;;;;;;;5.63;2.00;;;;;;;14.10;45.26;101061.69;5084342;28;20127;-70
2022/05/25 04:07:44;;;;;;;3.67;1.70;;;;;;;13.96;44.37;101059.91;5081937;28;20486;-70
2022/05/25 04:10:14;;;;;;;3.58;2.13;;;;;;;13.51;46.00;101048.25;5083665;28;20095;-70
2022/05/25 04:12:43;;;;;;;3.22;1.80;;;;;;;13.58;45.48;101063.34;5087299;28;20551;-70
2022/05/25 04:15:11;;;;;;;2.65;1.50;;;;;;;13.74;45.42;101055.75;5089987;28;20044;-70
2022/05/25 04:17:37;;;;;;;4.63;2.03;;;;;;;14.21;44.89;101058.78;5091692;28;20036;-70
2022/05/25 04:20:04;;;;;;;3.50;1.90;;;;;;;14.58;44.35;101055.28;5091862;28;20115;-70
2022/05/25 04:22:32;;;;;;;2.78;1.75;;;;;;;14.62;43.50;101051.66;5078566;28;20040;-72
2022/05/25 04:25:01;;;;;;;4.22;1.73;;;;;;;14.75;43.60;101055.59;5084956;28;20615;-70
2022/05/25 04:27:27;;;;;;;2.42;1.33;;;;;;;14.98;42.07;101051.94;5078007;28;20040;-70
2022/05/25 04:29:53;;;;;;;3.67;1.58;;;;;;;15.09;41.40;101053.38;5074116;28;20055;-70
2022/05/25 04:32:19;;;;;;;3.20;1.55;;;;;;;14.99;41.70;101055.50;5073770;28;20043;-70
2022/05/25 04:34:44;;;;;;;3.40;1.50;;;;;;;14.81;41.75;101056.34;5089257;28;20036;-70
2022/05/25 04:39:54;;;;;;;4.18;1.70;;;;;;;14.75;42.60;101048.16;5094199;28;20478;-70
2022/05/25 04:42:20;;;;;;;3.13;1.67;;;;;;;14.98;41.49;101042.81;5093679;28;20046;-70
2022/05/25 04:44:46;;;;;;;2.08;1.05;;;;;;;15.12;41.56;101043.69;5093056;28;20040;-70
2022/05/25 04:47:13;;;;;;;2.55;1.50;;;;;;;15.25;41.62;101044.84;5092272;28;20039;-68
2022/05/25 04:49:43;;;;;;;3.83;1.50;;;;;;;15.63;40.51;101045.59;5093793;28;20139;-69
2022/05/25 04:52:09;;;;;;;3.50;1.52;;;;;;;15.85;40.01;101039.38;5093931;28;20044;-69
2022/05/25 04:54:34;;;;;;;3.97;1.42;;;;;;;15.67;39.62;101038.31;5092160;28;20093;-70
2022/05/25 04:59:44;;;;;;;4.18;1.70;;;;;;;15.27;39.97;101043.44;5093649;28;20047;-70
2022/05/25 05:02:10;;;;;;;2.95;1.80;;;;;;;15.29;40.46;101032.91;5093740;28;20079;-70
2022/05/25 05:04:37;;;;;;;2.17;1.27;;;;;;;15.28;39.86;101042.31;5091661;28;20042;-70
2022/05/25 05:07:03;;;;;;;3.35;1.75;;;;;;;15.68;40.00;101042.72;5093437;28;20039;-70
2022/05/25 05:09:33;;;;;;;3.13;1.63;;;;;;;15.94;39.27;101043.88;5090403;28;20073;-71
2022/05/25 05:11:59;;;;;;;4.40;1.52;;;;;;;16.12;39.05;101052.38;5089696;28;20123;-70
2022/05/25 05:14:25;;;;;;;4.10;1.50;;;;;;;16.07;37.89;101044.19;5073253;28;20123;-70
2022/05/25 05:16:58;;;;;;;3.28;1.42;;;;;;;15.93;38.81;101042.22;5073037;28;20111;-70
2022/05/25 05:19:32;;;;;;;1.88;1.40;;;;;;;16.19;38.88;101044.50;5071124;28;20494;-70
2022/05/25 05:22:01;;;;;;;1.42;1.17;;;;;;;16.28;38.64;101042.63;5072097;28;20127;-70
2022/05/25 05:24:29;;;;;;;6.43;1.42;;;;;;;16.52;37.67;101045.16;5073565;28;20128;-70
2022/05/25 05:26:56;;;;;;;3.22;1.75;;;;;;;16.58;37.59;101043.91;5091044;28;20040;-70
2022/05/25 05:29:23;;;;;;;1.90;1.23;;;;;;;16.54;37.71;101037.34;5091781;28;20051;-70
2022/05/25 05:31:49;;;;;;;2.92;1.60;;;;;;;16.81;37.39;101045.59;5093164;28;20502;-70
2022/05/25 05:34:14;;;;;;;3.58;1.45;;;;;;;17.06;36.63;101037.81;5080744;28;20052;-69
2022/05/25 05:36:43;;;;;;;5.95;1.65;;;;;;;16.69;37.54;101041.78;5072745;28;20068;-70
2022/05/25 05:39:10;;;;;;;4.97;1.90;;;;;;;16.76;37.54;101048.50;5071550;28;20049;-68
2022/05/25 05:41:43;;;;;;;2.55;1.35;;;;;;;16.88;36.88;101039.66;5104880;28;20449;-69
2022/05/25 05:44:11;;;;;;;2.97;1.30;;;;;;;16.79;36.67;101041.50;5087846;28;20040;-70
2022/05/25 05:46:41;;;;;;;3.20;1.50;;;;;;;16.76;36.88;101031.06;5071133;28;20090;-69
2022/05/25 05:49:08;;;;;;;5.68;1.50;;;;;;;16.94;35.25;101029.25;5088933;28;20379;-69
2022/05/25 05:51:35;;;;;;;3.53;1.52;;;;;;;16.69;35.99;101033.47;5092358;28;20044;-70
2022/05/25 05:54:02;;;;;;;3.63;1.48;;;;;;;16.69;34.99;101022.38;5091143;28;20036;-70
2022/05/25 05:56:28;;;;;;;2.90;1.40;;;;;;;16.71;34.94;101028.41;5072183;28;20392;-69
2022/05/25 05:58:54;;;;;;;1.42;1.23;;;;;;;16.50;34.99;101028.03;5072201;28;20047;-69
2022/05/25 06:01:20;;;;;;;3.75;1.70;;;;;;;16.36;35.68;101036.38;5072209;28;20032;-69
2022/05/25 06:03:45;;;;;;;1.73;1.52;;;;;;;16.02;35.51;101027.69;5072053;28;20055;-70
2022/05/25 06:06:11;;;;;;;2.80;1.40;;;;;;;15.88;35.71;101031.25;5071477;28;20077;-69
2022/05/25 06:08:36;;;;;;;4.35;1.30;;;;;;;16.06;34.83;101026.75;5071706;28;20117;-69
2022/05/25 06:11:02;;;;;;;3.25;1.38;;;;;;;16.15;35.06;101030.44;5072189;28;20044;-69
2022/05/25 06:13:27;;;;;;;3.95;1.25;;;;;;;16.35;35.52;101020.88;5072077;28;20052;-69
2022/05/25 06:21:23;;;;;;;3.78;1.30;;;;;;;17.30;33.84;101018.91;5072809;28;20396;-69
2022/05/25 06:23:49;;;;;;;2.30;1.30;;;;;;;17.54;33.96;101026.88;5071471;28;20049;-69
2022/05/25 06:26:15;;;;;;;2.95;1.48;;;;;;;17.53;32.79;101019.69;5104215;28;20035;-69
2022/05/25 06:28:42;;;;;;;4.18;1.15;;;;;;;18.06;33.29;101011.28;5092816;28;20052;-69
2022/05/25 06:31:08;;;;;;;2.58;1.17;;;;;;;18.44;33.15;101019.03;5091598;28;20413;-69
2022/05/25 06:33:34;;;;;;;8.43;1.90;;;;;;;18.57;32.61;101014.47;5091640;28;20032;-69
2022/05/25 06:36:12;;;;;;;2.05;1.35;;;;;;;18.38;32.68;101020.31;5090582;28;20036;-69
2022/05/25 06:38:37;;;;;;;;;;;;;;;18.37;32.33;101016.72;5077122;28;20036;-69
2022/05/25 06:41:03;;;;;;;3.05;1.50;;;;;;;18.25;32.84;101016.56;5078137;28;20443;-69
2022/05/25 06:43:28;;;;;;;2.17;1.40;;;;;;;18.34;32.54;101014.59;5085610;28;20535;-70
2022/05/25 06:45:54;;;;;;;2.83;1.38;;;;;;;18.74;32.82;101008.13;5071213;28;20037;-69
2022/05/25 06:48:20;;;;;;;3.47;1.60;;;;;;;18.78;31.83;101015.50;5085732;28;20036;-69
2022/05/25 06:50:46;;;;;;;2.50;1.40;;;;;;;18.58;31.62;101005.00;5091456;28;20122;-69
2022/05/25 06:53:12;;;;;;;3.45;1.40;;;;;;;18.65;31.63;101011.72;5091445;28;20388;-69
2022/05/25 06:55:37;;;;;;;3.67;1.30;;;;;;;18.66;31.58;101012.53;5091101;28;20046;-69
2022/05/25 06:58:03;;;;;;;4.32;1.55;;;;;;;18.43;31.24;101013.81;5082422;28;20068;-69
2022/05/25 07:00:29;;;;;;;3.22;1.65;;;;;;;18.23;31.77;101009.69;5089342;28;20092;-69
2022/05/25 07:02:55;;;;;;;2.53;1.58;;;;;;;17.80;32.47;100996.50;5091273;28;20123;-70
2022/05/25 07:05:20;;;;;;;4.20;1.10;;;;;;;17.87;32.77;100996.81;5091292;28;20036;-70
2022/05/25 07:07:46;;;;;;;2.78;1.40;;;;;;;17.84;32.81;100996.66;5091496;28;20108;-73
2022/05/25 07:10:11;;;;;;;2.55;1.10;;;;;;;18.36;32.09;100992.88;5091294;28;20055;-69
2022/05/25 07:12:37;;;;;;;1.60;1.40;;;;;;;18.51;31.78;100991.56;5078013;28;20545;-69
2022/05/25 07:15:03;;;;;;;3.80;1.75;;;;;;;18.43;32.04;100983.25;5071081;28;20077;-70
2022/05/25 07:17:30;;;;;;;3.20;1.65;;;;;;;18.44;31.59;100993.22;5079124;28;20040;-70
2022/05/25 07:19:56;;;;;;;3.38;1.50;;;;;;;18.53;31.35;100985.69;5074890;28;20032;-69
2022/05/25 07:22:21;;;;;;;1.92;1.40;;;;;;;18.68;31.21;100990.78;5091138;28;20040;-69
2022/05/25 07:24:47;;;;;;;2.15;1.27;;;;;;;18.88;31.38;100992.09;5090190;28;20527;-70
2022/05/25 07:27:13;;;;;;;2.17;1.30;;;;;;;19.29;31.06;100991.53;5080215;28;20032;-71
2022/05/25 07:29:38;;;;;;;2.47;1.73;;;;;;;18.96;30.83;100988.50;5083815;28;20051;-70
2022/05/25 07:32:06;;;;;;;2.08;1.67;;;;;;;18.35;31.01;100996.78;5091004;28;20048;-70
2022/05/25 07:34:37;;;;;;;6.45;1.45;;;;;;;17.71;31.58;100987.31;5069725;28;20151;-70
2022/05/25 07:37:12;;;;;;;4.05;1.55;;;;;;;17.66;31.57;100999.34;5089263;28;20036;-70
2022/05/25 07:39:47;;;;;;;2.35;1.30;;;;;;;17.55;32.61;100984.13;5090724;28;20390;-70
2022/05/25 07:42:14;;;;;;;1.60;1.50;;;;;;;18.26;31.58;100986.81;5090987;28;20121;-70
2022/05/25 07:44:43;;;;;;;5.35;2.10;;;;;;;18.66;31.42;100982.78;5090681;28;20043;-70
2022/05/25 07:47:09;;;;;;;2.42;1.98;;;;;;;18.51;31.93;100982.41;5089932;28;20044;-70
2022/05/25 07:49:34;;;;;;;3.45;2.10;;;;;;;18.28;32.00;100977.00;5087415;28;20046;-70
2022/05/25 07:52:02;;;;;;;2.97;1.88;;;;;;;18.51;32.19;100977.69;5079853;28;20066;-70
2022/05/25 07:54:27;;;;;;;2.50;1.50;;;;;;;18.74;32.36;100978.34;5086561;28;20089;-70
2022/05/25 07:56:54;;;;;;;2.60;1.60;;;;;;;19.21;31.41;100975.69;5094405;28;20052;-70
2022/05/25 07:59:19;;;;;;;2.47;1.35;;;;;;;19.39;30.79;100974.47;5094691;28;20506;-70
2022/05/25 08:07:21;;;;;;;2.95;1.80;;;;;;;19.47;30.42;100970.03;5088668;28;20028;-69
2022/05/25 08:09:47;;;;;;;2.67;1.42;;;;;;;19.37;30.78;100965.66;5092989;28;20139;-70
2022/05/25 08:12:13;;;;;;;2.25;1.77;;;;;;;19.26;30.65;100969.94;5088677;28;20123;-69
2022/05/25 08:14:38;;;;;;;3.42;2.00;;;;;;;19.17;31.13;100966.38;5073175;28;20461;-69
2022/05/25 08:17:06;;;;;;;5.13;1.80;;;;;;;18.64;31.46;100965.63;5074424;28;20127;-69
2022/05/25 08:19:32;;;;;;;2.85;1.58;;;;;;;18.60;32.15;100969.34;5074500;28;20040;-70
2022/05/25 08:21:58;;;;;;;6.45;1.80;;;;;;;18.93;31.62;100958.56;5074000;28;20403;-70
2022/05/25 08:24:24;;;;;;;3.47;1.85;;;;;;;19.08;31.54;100960.00;5075395;28;20066;-69
2022/05/25 08:26:49;;;;;;;4.03;1.65;;;;;;;18.79;31.50;100960.72;5082580;28;20076;-69
2022/05/25 08:29:15;;;;;;;2.22;1.90;;;;;;;18.60;31.33;100959.06;5073661;28;20411;-68
2022/05/25 08:31:41;;;;;;;3.50;1.90;;;;;;;18.56;31.31;100962.78;5082202;28;20084;-68
2022/05/25 08:34:07;;;;;;;5.00;1.88;;;;;;;18.85;31.35;100957.41;5072429;28;20064;-69
2022/05/25 08:36:33;;;;;;;4.93;1.75;;;;;;;18.95;30.89;100953.50;5073413;28;20125;-71
2022/05/25 08:38:59;;;;;;;2.97;1.83;;;;;;;19.09;31.37;100950.50;5073022;28;20048;-71
2022/05/25 08:41:37;;;;;;;5.32;1.80;;;;;;;19.28;31.25;100945.41;5089106;28;20226;-71
2022/05/25 08:44:03;;;;;;;2.38;1.33;;;;;;;19.50;31.59;100961.03;5072229;28;20521;-71
2022/05/25 08:46:30;;;;;;;4.30;1.80;;;;;;;19.74;30.45;100947.34;5073376;28;20495;-71
2022/05/25 08:48:57;;;;;;;4.78;1.90;;;;;;;19.40;30.25;100947.47;5072454;28;20524;-71
2022/05/25 08:51:27;;;;;;;3.22;1.52;;;;;;;18.89;31.08;100940.88;5073160;28;20039;-72
2022/05/25 08:53:56;;;;;;;4.57;1.85;;;;;;;18.91;31.60;100947.75;5089186;28;20031;-72
2022/05/25 08:56:35;;;;;;;3.15;1.70;;;;;;;19.02;30.69;100948.22;5106695;28;20055;-72
2022/05/25 08:59:11;;;;;;;7.00;1.80;;;;;;;18.90;31.54;100940.56;5076658;28;20561;-71
2022/05/25 09:01:56;;;;;;;2.17;1.60;;;;;;;18.98;30.80;100947.25;5113539;27;20191;-72
2022/05/25 09:04:40;;;;;;;4.65;2.33;;;;;;;18.70;30.47;100935.69;5112845;27;20039;-72
2022/05/25 09:07:47;;;;;;;4.80;2.50;;;;;;;18.62;31.24;100936.50;5095971;28;20032;-73
2022/05/25 09:10:15;;;;;;;4.43;2.15;;;;;;;18.68;31.45;100932.41;5080958;28;20032;-72
2022/05/25 09:12:50;;;;;;;6.03;2.40;;;;;;;18.83;31.23;100925.53;5077282;28;20036;-73
2022/05/25 09:15:28;;;;;;;6.82;2.13;;;;;;;19.01;31.00;100929.09;5092489;28;20120;-72
2022/05/25 09:18:05;;;;;;;3.58;2.03;;;;;;;19.19;30.97;100930.69;5071789;28;20540;-74
2022/05/25 09:20:34;;;;;;;4.85;2.42;;;;;;;19.20;30.11;100924.78;5074365;28;20036;-71
2022/05/25 09:22:59;;;;;;;2.72;1.83;;;;;;;19.16;30.92;100920.22;5092118;28;20047;-72
2022/05/25 09:25:26;;;;;;;1.67;1.50;;;;;;;18.97;30.29;100918.63;5081955;28;20131;-71
2022/05/25 09:28:00;;;;;;;3.70;2.05;;;;;;;18.71;30.92;100915.06;5091192;28;20036;-71
2022/05/25 09:30:26;;;;;;;4.30;2.22;;;;;;;18.55;30.91;100917.50;5090126;28;20032;-71
2022/05/25 09:33:00;;;;;;;4.38;2.10;;;;;;;18.43;31.20;100919.34;5085381;28;20043;-71
2022/05/25 09:35:29;;;;;;;3.22;1.65;;;;;;;18.17;32.03;100911.78;5118868;27;20502;-72
2022/05/25 09:37:56;;;;;;;2.97;2.00;;;;;;;18.06;31.70;100913.28;5100375;28;20036;-71
2022/05/25 09:40:30;;;;;;;2.78;1.88;;;;;;;18.03;31.86;100906.38;5092160;28;20039;-71
2022/05/25 09:42:57;;;;;;;8.15;1.98;;;;;;;18.09;32.18;100907.06;5093452;28;20048;-72
2022/05/25 09:45:40;;;;;;;3.55;2.00;;;;;;;18.07;31.93;100899.06;5091227;28;20043;-73
2022/05/25 09:48:41;;;;;;;7.18;2.17;;;;;;;17.80;31.24;100906.84;5092151;28;20042;-72
2022/05/25 09:51:33;;;;;;;3.63;2.00;;;;;;;17.65;31.14;100895.00;5077611;28;20124;-71
2022/05/25 09:54:11;;;;;;;7.00;2.30;;;;;;;17.63;31.62;100902.03;5060800;28;20423;-71
2022/05/25 09:56:39;;;;;;;4.18;2.38;;;;;;;17.69;31.19;100896.03;5091396;28;20044;-72
2022/05/25 09:59:14;;;;;;;4.55;2.08;;;;;;;17.50;31.54;100895.44;5086798;28;20077;-71
2022/05/25 10:01:46;;;;;;;2.90;2.20;;;;;;;17.43;31.66;100893.16;5084618;28;20085;-72
2022/05/25 10:04:17;;;;;;;3.10;2.15;;;;;;;17.55;31.73;100881.44;5086490;28;20032;-72
2022/05/25 10:06:51;;;;;;;6.18;2.15;;;;;;;17.70;31.76;100881.03;5090728;28;20518;-71
2022/05/25 10:09:21;;;;;;;3.40;2.25;;;;;;;17.76;31.38;100876.97;5070637;28;20051;-75
2022/05/25 10:11:52;;;;;;;3.58;2.47;;;;;;;17.82;31.53;100885.94;5075719;28;20087;-72
2022/05/25 10:14:23;;;;;;;4.80;2.05;;;;;;;17.89;31.06;100882.69;5076386;28;20056;-73
2022/05/25 10:16:49;;;;;;;3.15;2.17;;;;;;;17.89;30.29;100871.59;5071764;28;20036;-73
2022/05/25 10:19:19;;;;;;;3.35;2.22;;;;;;;17.74;30.54;100868.13;5087301;28;20123;-79
2022/05/25 10:21:50;;;;;;;3.97;1.98;;;;;;;17.57;30.82;100858.94;5079519;28;20090;-73
2022/05/25 10:24:22;;;;;;;3.60;2.42;;;;;;;17.63;30.98;100861.22;5079440;28;20032;-73
2022/05/25 10:26:51;;;;;;;4.28;2.00;;;;;;;17.74;30.87;100854.25;5089511;28;20036;-71
2022/05/25 10:38:29;;;;;;;5.78;2.53;;;;;;;18.04;30.67;100841.38;5074445;28;20051;-73
2022/05/25 10:40:57;;;;;;;7.45;3.40;;;;;;;18.01;30.61;100832.88;5088934;28;20050;-72
2022/05/25 10:43:30;;;;;;;7.10;2.70;;;;;;;17.97;29.90;100829.13;5082620;28;20121;-72
2022/05/25 10:45:59;;;;;;;3.05;2.05;;;;;;;17.82;30.18;100833.19;5084978;28;20119;-73
2022/05/25 10:48:45;;;;;;;4.22;1.95;;;;;;;17.78;30.42;100832.22;5080308;28;20127;-73
2022/05/25 10:51:25;;;;;;;2.85;1.63;;;;;;;17.75;30.76;100832.88;5068774;28;20495;-72
2022/05/25 10:57:20;;;;;;;3.50;2.33;;;;;;;17.64;31.33;100820.41;5071851;28;20047;-72
2022/05/25 10:59:52;;;;;;;3.22;1.80;;;;;;;17.56;30.89;100819.25;5079282;28;20139;-72
2022/05/25 11:02:35;;;;;;;6.68;2.35;;;;;;;17.55;31.52;100817.63;5086095;28;20044;-72
2022/05/25 11:05:11;;;;;;;4.13;2.60;;;;;;;17.47;31.20;100813.69;5085677;28;20057;-73
2022/05/25 11:07:39;;;;;;;4.03;2.42;;;;;;;17.43;31.59;100815.47;5085235;28;20098;-73
2022/05/25 11:10:38;;;;;;;5.35;2.53;;;;;;;17.36;31.46;100795.72;5102072;28;20047;-73
2022/05/25 11:13:25;;;;;;;3.97;2.45;;;;;;;17.43;32.04;100801.59;5084772;28;20075;-73
2022/05/25 11:16:04;;;;;;;6.75;2.42;;;;;;;17.49;31.69;100793.94;5087663;28;20028;-73
2022/05/25 11:18:36;;;;;;;6.30;3.10;;;;;;;17.47;31.44;100794.25;5089289;28;20105;-73
2022/05/25 11:21:04;;;;;;;7.88;2.28;;;;;;;17.42;31.47;100782.50;5076726;28;20486;-73
2022/05/25 11:23:38;;;;;;;4.65;2.33;;;;;;;17.46;31.38;100792.63;5080992;28;20103;-73
2022/05/25 11:26:17;;;;;;;4.57;2.45;;;;;;;17.55;31.19;100783.53;5092720;28;20047;-73
2022/05/25 11:29:06;;;;;;;4.25;2.28;;;;;;;17.43;31.35;100784.13;5089647;28;20032;-73
2022/05/25 11:31:47;;;;;;;6.28;2.70;;;;;;;17.45;31.54;100782.69;5091197;28;20090;-72
2022/05/25 11:34:25;;;;;;;6.40;2.53;;;;;;;17.52;31.24;100775.81;5075114;28;20121;-73
2022/05/25 11:37:10;;;;;;;5.28;2.72;;;;;;;17.52;31.04;100778.59;5084464;28;20097;-73
2022/05/25 11:39:47;;;;;;;4.90;2.20;;;;;;;17.53;31.18;100781.06;5090857;28;20042;-73
2022/05/25 11:42:37;;;;;;;6.63;2.33;;;;;;;17.57;31.17;100765.41;5090746;28;20076;-73
2022/05/25 11:45:03;;;;;;;5.47;2.20;;;;;;;17.65;30.61;100767.34;5090520;28;20410;-73
2022/05/25 11:48:16;;;;;;;5.13;2.70;;;;;;;17.54;30.73;100776.34;5090741;28;20036;-73
2022/05/25 11:50:54;;;;;;;5.00;2.10;;;;;;;17.52;31.60;100773.03;5046118;28;20148;-73
2022/05/25 11:53:35;;;;;;;4.80;2.20;;;;;;;17.44;31.53;100769.94;5051302;28;20036;-73
2022/05/25 11:56:09;;;;;;;3.58;2.10;;;;;;;17.42;32.16;100771.41;5054912;28;20071;-72
2022/05/25 11:59:08;;;;;;;3.25;2.30;;;;;;;17.41;31.81;100765.06;5070341;28;20042;-72
2022/05/25 12:01:42;;;;;;;5.95;2.35;;;;;;;17.42;32.54;100755.59;5070514;28;20055;-72
2022/05/25 12:04:11;;;;;;;4.13;2.20;;;;;;;17.38;32.58;100759.34;5070124;28;20486;-73
2022/05/25 12:06:51;;;;;;;3.00;2.00;;;;;;;17.33;33.18;100749.19;5073500;28;20070;-73
2022/05/25 12:09:31;;;;;;;4.68;2.20;;;;;;;17.33;33.07;100754.75;5077480;28;20414;-72
2022/05/25 12:12:21;;;;;;;7.57;3.45;;;;;;;17.34;33.72;100766.66;5070097;28;20058;-72
2022/05/25 12:15:02;;;;;;;6.20;2.20;;;;;;;17.20;33.46;100754.91;5058931;28;20081;-76